Estación Meteorológica Peña el Pijo (Robertgarden) [ 12/14/19 08:38:50 CET ]

Fecha Hora Presion(HPa) Temp (°C) Humedad % Rocio (°C) Viento ( m/s) Direccion Lluvia 1Hora(mm) Lluvia 24H(mm) LLuvia Total(mm)
2019-Oct-11 01:01:41 1014.200 11.2 84 8.6         0.00
2019-Oct-11 02:01:49 1014.100 10.5 85 8.0         0.00
2019-Oct-11 03:02:15 1013.800 11.6 86 9.3         0.00
2019-Oct-11 04:02:16 1013.800 12.3 87 10.3         0.00
2019-Oct-11 05:05:08 1013.400 12.6 87 10.5         0.00
2019-Oct-11 06:01:49 1013.400 12.8 88 10.8         0.00
2019-Oct-11 07:01:36 1013.300 12.7 88 10.7         0.00
2019-Oct-11 08:01:56 1013.500 12.4 88 10.4         0.00
2019-Oct-11 09:01:53 1013.800 12.1 89 10.3         0.00
2019-Oct-11 10:01:43 1014.200 12.2 89 10.4         0.00
2019-Oct-11 11:01:43 1014.200 16.1 85 13.6         0.00
2019-Oct-11 12:01:50 1013.600 21.6 50 11.2         0.00
2019-Oct-11 13:01:37 1013.300 26.3 34 9.1         0.00
2019-Oct-11 14:01:58 1012.600 28.1 30 8.9 0.4 WSW     0.00
2019-Oct-11 15:01:50 1011.800 29.2 29 9.3         0.00
2019-Oct-11 16:01:54 1011.800 25.4 33 7.9         0.00
2019-Oct-11 17:01:52 1011.500 26.6 37 10.6         0.00
2019-Oct-11 18:01:44 1011.200 24.9 40 10.4         0.00
2019-Oct-11 19:01:43 1011.400 21.9 46 9.7         0.00
2019-Oct-11 20:01:49 1011.400 18.8 60 10.9         0.00
2019-Oct-11 21:01:47 1012.100 16.3 67 10.2         0.00
2019-Oct-11 22:01:52 1012.700 14.6 71 9.4         0.00
2019-Oct-11 23:02:03 1012.700 13.3 75 8.9         0.00

Temperatura Máxima:29°    Temperatura Mínima:10°
Presión Máxima:1014.200 Hpa    Presión Mínima:1011.200 Hpa


Volver